Latest Coastal Weather Observations for Innisfail Aero

IDQ60701

Issued at 8:51 pm EST Monday 14 October 2019 (issued every 10 minutes, with the page automatically refreshed every 10 minutes)

About coastal observations | Map of coastal stations | Coastal observations for QLD | Marine services | Other Formats
Station Details ID: 032197 Name: INNISFAIL AERODROME Lat: -17.56 Lon: 146.01 Height: 11.84 m
Data from the previous 72 hours. | See also: Recent months at Innisfail Aero
Date/Time
EST
Wind Sea
Height
m
Swell Vis
km
Cloud Weather Temp
°C
Press
hPa
Rain since
9am
mm
Dir  Spd
kts
Gust
kts
Height
m
Period
s
Dir
14/08:30pm WSW 5 5 - - - - 10 - - 20.2 1016.2 0.0
14/08:00pm WSW 4 5 - - - - 10 - - 20.8 1016.0 0.0
14/07:30pm CALM 0 0 - - - - 10 - - 21.4 1015.7 0.0
14/07:00pm SE 3 4 - - - - 10 - - 21.9 1015.4 0.0
14/06:30pm E 4 5 - - - - 10 - - 23.0 1014.9 0.0
14/06:00pm E 7 10 - - - - 10 - - 24.3 1014.5 0.0
14/05:30pm E 8 10 - - - - 10 - - 25.8 1014.4 0.0
14/05:00pm E 7 11 - - - - 10 - - 26.5 1014.2 0.0
14/04:30pm ESE 9 11 - - - - 10 - - 27.4 1014.2 0.0
14/04:00pm ESE 9 12 - - - - 10 - - 27.5 1014.3 0.0
14/03:30pm ESE 9 13 - - - - 10 - - 28.6 1014.5 0.0
14/03:00pm E 10 15 - - - - 10 - - 29.4 1014.5 0.0
14/02:30pm E 10 13 - - - - 10 - - 29.8 1014.6 0.0
14/02:00pm E 9 13 - - - - 10 - - 30.1 1014.9 0.0
14/01:30pm E 9 15 - - - - 10 - - 29.5 1015.2 0.0
14/01:00pm E 10 14 - - - - 10 - - 29.9 1015.7 0.0
14/12:30pm E 11 15 - - - - 10 - - 29.6 1016.3 0.0
14/12:00pm E 8 13 - - - - 10 - - 29.1 1016.7 0.0
14/11:30am E 9 13 - - - - 10 - - 29.5 1016.9 0.0
14/11:00am ESE 10 14 - - - - 10 Partly cloudy - 29.0 1017.1 0.0
14/10:30am NE 6 13 - - - - 10 Partly cloudy - 29.0 1017.1 0.0
14/10:00am E 6 9 - - - - 10 Partly cloudy - 27.8 1017.3 0.0
14/09:30am NNE 7 12 - - - - 10 Partly cloudy - 26.4 1017.5 0.0
14/09:00am NNW 5 8 - - - - 10 - - 25.8 1017.6 0.0
14/08:30am NW 4 6 - - - - 10 - - 24.6 1017.6 0.0
14/08:00am NNW 4 7 - - - - 10 Partly cloudy - 22.7 1017.7 0.0
14/07:30am ENE 3 4 - - - - 10 Partly cloudy - 20.7 1017.5 0.0
14/07:00am NNW 4 5 - - - - 10 - - 18.8 1016.9 0.0
14/06:30am NE 4 5 - - - - 10 - - 17.0 1016.6 0.0
14/06:00am CALM 0 0 - - - - 10 Mostly clear - 16.7 1016.1 0.0
14/05:30am WNW 1 3 - - - - 10 Partly cloudy - 17.1 1015.8 0.0
14/05:00am NNE 3 4 - - - - 10 Partly cloudy - 16.9 1015.2 0.0
14/04:30am NNW 5 5 - - - - 10 - - 16.8 1015.0 0.0
14/04:21am NW 4 5 - - - - 10 Partly cloudy - 17.0 1015.0 0.0
14/04:00am N 5 6 - - - - 1 Partly cloudy - 16.1 1015.0 0.0
14/03:54am N 5 6 - - - - 5 Partly cloudy - 16.3 1015.0 0.0
14/03:36am N 3 4 - - - - 9 Partly cloudy - 17.3 1015.0 0.0
14/03:30am N 3 4 - - - - 10 Partly cloudy - 17.2 1014.9 0.0
14/03:00am N 4 5 - - - - 0.5 Cloudy - 16.9 1015.1 0.0
14/02:30am N 2 4 - - - - 0.7 Partly cloudy - 17.3 1015.4 0.0
14/02:00am NNW 1 3 - - - - 5 Partly cloudy - 17.5 1015.5 0.0
14/01:36am NNW 4 5 - - - - 2 - - 17.1 1015.5 0.0
14/01:30am NNW 5 5 - - - - 10 - - 17.5 1015.5 0.0
14/01:07am N 4 5 - - - - 5 - - 17.4 1015.8 0.0
14/01:04am NNE 4 5 - - - - 7 - - 17.2 1015.8 0.0
14/01:00am NE 5 5 - - - - 10 - - 17.3 1015.8 0.0
14/12:30am N 5 6 - - - - 0.3 Partly cloudy - 16.3 1015.8 0.0
14/12:00am CALM 0 0 - - - - 0.4 Mostly clear Showers 18.8 1016.0 0.0
 
Date/Time
EST
Wind Sea
Height
m
Swell Vis
km
Cloud Weather Temp
°C
Press
hPa
Rain since
9am
mm
Dir  Spd
kts
Gust
kts
Height
m
Period
s
Dir
13/11:30pm CALM 0 0 - - - - 2 - - 19.2 1016.0 0.0
13/11:06pm CALM 0 0 - - - - 5 - - 19.3 1016.1 0.0
13/11:00pm CALM 0 0 - - - - 10 - - 19.4 1016.2 0.0
13/10:30pm N 1 3 - - - - 9 Partly cloudy - 18.9 1016.2 0.0
13/10:00pm CALM 0 0 - - - - 10 - - 18.8 1016.1 0.0
13/09:30pm W 2 3 - - - - 10 - - 20.1 1015.9 0.0
13/09:00pm W 4 5 - - - - 10 Partly cloudy - 20.7 1015.6 0.0
13/08:30pm W 4 5 - - - - 10 Partly cloudy - 21.0 1015.2 0.0
13/08:00pm N 3 4 - - - - 10 - - 21.3 1014.7 0.0
13/07:30pm NE 3 4 - - - - 10 - - 22.7 1014.5 0.0
13/07:00pm E 3 4 - - - - 10 - - 23.1 1014.2 0.0
13/06:30pm E 4 5 - - - - 10 - - 23.3 1013.9 0.0
13/06:00pm E 7 9 - - - - 10 - - 24.7 1013.5 0.0
13/05:30pm E 8 10 - - - - 10 - - 25.9 1013.2 0.0
13/05:00pm E 9 11 - - - - 10 - - 26.9 1012.8 0.0
13/04:30pm ENE 8 11 - - - - 10 - - 27.8 1012.6 0.0
13/04:00pm ENE 9 13 - - - - 10 - - 28.5 1012.6 0.0
13/03:30pm E 10 14 - - - - 10 - - 28.5 1012.6 0.0
13/03:00pm E 11 14 - - - - 10 - - 28.6 1012.9 0.0
13/02:30pm E 10 14 - - - - 10 - - 29.9 1013.1 0.0
13/02:00pm E 10 15 - - - - 10 - - 30.1 1013.4 0.0
13/01:30pm E 11 14 - - - - 10 - - 30.0 1013.7 0.0
13/01:00pm E 10 14 - - - - 10 - - 30.7 1013.9 0.0
13/12:30pm E 10 14 - - - - 10 - - 30.4 1014.2 0.0
13/12:00pm E 11 14 - - - - 10 - - 30.0 1014.7 0.0
13/11:30am E 8 13 - - - - 10 - - 30.4 1015.2 0.0
13/11:00am E 7 10 - - - - 10 - - 30.0 1015.4 0.0
13/10:30am E 5 9 - - - - 10 - - 28.9 1015.8 0.0
13/10:00am NNW 4 9 - - - - 10 Partly cloudy - 28.7 1015.9 0.0
13/09:30am E 4 7 - - - - 10 - - 28.3 1016.3 0.0
13/09:00am W 3 5 - - - - 10 - - 26.0 1016.5 0.0
13/08:30am SW 4 6 - - - - 10 - - 24.2 1016.6 0.0
13/08:00am SSW 5 6 - - - - 10 - - 22.5 1016.4 0.0
13/07:30am WSW 3 5 - - - - 10 - - 20.1 1016.1 0.0
13/07:00am SSW 2 3 - - - - 10 - - 18.5 1015.7 0.0
13/06:30am SSW 3 3 - - - - 10 - - 17.1 1015.3 0.0
13/06:08am NNW 5 6 - - - - 9 - - 16.9 1014.9 0.0
13/06:00am NNW 6 7 - - - - 6 - Showers 15.8 1014.6 0.0
13/05:30am NNW 4 5 - - - - 0.3 - - 16.2 1014.0 0.0
13/05:06am N 3 5 - - - - 0.5 Partly cloudy - 16.4 1013.5 0.0
13/05:00am NNE 1 3 - - - - 0.4 Partly cloudy - 16.4 1013.4 0.0
13/04:48am CALM 0 0 - - - - 0.2 Partly cloudy - 15.7 1013.2 0.0
13/04:40am CALM 0 0 - - - - 0.5 Partly cloudy - 16.6 1013.1 0.0
13/04:30am CALM 0 0 - - - - 1 Partly cloudy - 16.8 1013.0 0.0
13/04:00am N 3 4 - - - - 0.3 Partly cloudy - 16.9 1012.8 0.0
13/03:30am CALM 0 0 - - - - 0.2 Partly cloudy - 16.8 1012.7 0.0
13/03:12am CALM 0 0 - - - - 0.2 Partly cloudy - 16.8 1012.6 0.0
13/03:00am CALM 0 0 - - - - 1 Mostly clear Showers 17.1 1012.5 0.0
13/02:30am SSW 3 5 - - - - 1 Partly cloudy - 17.6 1012.6 0.0
13/02:29am SSW 4 5 - - - - 1 Partly cloudy - 17.6 1012.6 0.0
13/02:18am SSW 2 5 - - - - 4 Partly cloudy - 17.6 1012.6 0.0
13/02:13am CALM 0 3 - - - - 8 Partly cloudy - 17.7 1012.5 0.0
13/02:00am CALM 0 0 - - - - 2 Partly cloudy - 18.0 1012.6 0.0
13/01:48am CALM 0 0 - - - - 3 Partly cloudy - 18.0 1012.5 0.0
13/01:30am CALM 0 0 - - - - 4 - - 18.2 1012.5 0.0
13/01:28am CALM 0 1 - - - - 5 - - 18.2 1012.5 0.0
13/01:15am WNW 3 5 - - - - 10 - - 18.1 1012.4 0.0
13/01:00am WNW 4 4 - - - - 4 - - 18.1 1012.3 0.0
13/12:56am WNW 3 4 - - - - 5 - - 17.9 1012.3 0.0
13/12:30am SW 4 5 - - - - 10 - - 19.1 1012.4 0.0
13/12:05am SW 3 5 - - - - 10 Partly cloudy - 19.1 1012.3 0.0
13/12:00am SSW 2 4 - - - - 10 Mostly clear Rain 19.0 1012.3 0.0
 
Date/Time
EST
Wind Sea
Height
m
Swell Vis
km
Cloud Weather Temp
°C
Press
hPa
Rain since
9am
mm
Dir  Spd
kts
Gust
kts
Height
m
Period
s
Dir
12/11:37pm CALM 0 0 - - - - 3 - - 19.4 1012.4 0.0
12/11:36pm CALM 0 0 - - - - 7 - - 19.4 1012.5 0.0
12/11:30pm CALM 0 0 - - - - 10 - - 19.3 1012.5 0.0
12/11:00pm CALM 0 0 - - - - 0.7 - - 19.7 1012.7 0.0
12/10:54pm CALM 0 0 - - - - 5 - - 19.9 1012.6 0.0
12/10:30pm CALM 0 0 - - - - 10 - - 20.4 1012.5 0.0
12/10:00pm WNW 4 5 - - - - 10 - - 20.5 1012.4 0.0
12/09:30pm NW 4 5 - - - - 10 - - 20.8 1012.3 0.0
12/09:00pm WNW 3 4 - - - - 10 - - 20.9 1012.2 0.0
12/08:30pm NNW 4 4 - - - - 10 - - 21.1 1011.7 0.0
12/08:00pm NNW 4 5 - - - - 10 - - 21.5 1011.5 0.0
12/07:30pm NW 4 5 - - - - 10 - - 22.1 1010.9 0.0
12/07:00pm NE 5 6 - - - - 10 - - 22.6 1010.5 0.0
12/06:30pm NE 3 5 - - - - 10 - - 23.5 1010.1 0.0
12/06:00pm E 6 8 - - - - 10 - - 25.0 1009.6 0.0
12/05:30pm E 7 9 - - - - 10 - - 26.6 1009.2 0.0
12/05:00pm E 7 9 - - - - 10 - - 27.7 1008.8 0.0
12/04:30pm E 8 12 - - - - 10 - - 28.2 1008.4 0.0
12/04:00pm ENE 10 13 - - - - 10 - - 28.8 1008.1 0.0
12/03:30pm E 9 13 - - - - 10 - - 29.0 1008.3 0.0
12/03:00pm E 10 14 - - - - 10 - - 29.2 1008.4 0.0
12/02:30pm ENE 9 14 - - - - 10 - - 29.8 1008.7 0.0
12/02:00pm E 13 17 - - - - 10 - - 30.1 1008.7 0.0
12/01:30pm ENE 13 17 - - - - 10 - - 30.0 1009.2 0.0
12/01:00pm E 13 16 - - - - 10 - - 30.3 1009.4 0.0
12/12:30pm E 11 15 - - - - 10 - - 30.3 1009.9 0.0
12/12:00pm E 11 16 - - - - 10 - - 30.3 1010.4 0.0
12/11:30am E 11 16 - - - - 10 - - 30.2 1011.0 0.0
12/11:00am E 9 16 - - - - 10 Partly cloudy - 29.7 1011.6 0.0
12/10:30am E 5 9 - - - - 10 - - 29.4 1011.9 0.0
12/10:00am WNW 4 8 - - - - 10 - - 28.7 1012.3 0.0
12/09:30am ENE 6 9 - - - - 10 - - 27.1 1012.6 0.0
12/09:00am NE 6 8 - - - - 10 - - 26.3 1012.8 0.0
12/08:30am N 4 6 - - - - 10 - - 24.8 1012.9 0.0
12/08:00am CALM 0 4 - - - - 10 - - 23.1 1012.8 0.0
12/07:30am CALM 0 0 - - - - 10 - - 21.5 1012.7 0.0
12/07:00am CALM 0 0 - - - - 10 - - 19.7 1012.5 0.0
12/06:30am CALM 0 0 - - - - 10 - - 18.4 1012.1 0.0
12/06:00am WNW 3 3 - - - - 10 - - 17.6 1011.8 0.0
12/05:30am NW 3 4 - - - - 10 - - 18.2 1011.4 0.0
12/05:07am NNW 4 5 - - - - 5 Partly cloudy - 17.6 1011.2 0.0
12/05:00am NNW 4 5 - - - - 10 Partly cloudy - 17.6 1011.1 0.0
12/04:30am NW 4 4 - - - - 10 Partly cloudy - 18.3 1010.7 0.0
12/04:27am NW 4 4 - - - - 10 Partly cloudy - 18.0 1010.6 0.0
12/04:05am NNW 3 4 - - - - 5 - - 18.0 1010.3 0.0
12/04:00am NNW 4 5 - - - - 10 - - 18.0 1010.2 0.0
12/03:30am ENE 5 5 - - - - 10 - - 18.3 1010.1 0.0
12/03:00am W 4 4 - - - - 10 Partly cloudy - 18.8 1010.1 0.0
12/02:30am CALM 0 0 - - - - 10 Partly cloudy - 18.9 1010.2 0.0
12/02:00am SW 5 5 - - - - 10 Partly cloudy - 19.6 1010.5 0.0
12/01:30am SW 6 6 - - - - 10 - - 19.8 1011.0 0.0
12/01:00am S 5 6 - - - - 10 - - 20.1 1010.9 0.0
12/12:30am SW 5 6 - - - - 10 - - 20.6 1011.0 0.0
12/12:00am NW 5 7 - - - - 10 Mostly cloudy - 20.7 1011.2 0.0
 
Date/Time
EST
Wind Sea
Height
m
Swell Vis
km
Cloud Weather Temp
°C
Press
hPa
Rain since
9am
mm
Dir  Spd
kts
Gust
kts
Height
m
Period
s
Dir
11/11:30pm WNW 5 7 - - - - 10 - - 21.0 1011.3 0.0
11/11:00pm NW 5 6 - - - - 10 - - 20.8 1011.2 0.0
11/10:30pm NNW 5 6 - - - - 10 - - 20.8 1011.6 0.0
11/10:00pm N 5 5 - - - - 10 - - 21.1 1011.7 0.0
11/09:30pm NW 2 5 - - - - 10 - - 21.6 1012.0 0.0
11/09:00pm CALM 0 0 - - - - 10 - - 21.8 1011.8 0.0

Other formats

Comma delimited format used in spreadsheet applications
http://www.bom.gov.au/fwo/IDQ60701/IDQ60701.94280.axf

JavaScript Object Notation format (JSON) in row-major order
http://www.bom.gov.au/fwo/IDQ60701/IDQ60701.94280.json

Data quality

Most of these data are generated automatically and are frequently updated. Quality checks on data are not normally performed. It is possible for incorrect values to appear. Refer to information at About Latest Weather Observations and please check the disclaimer before using these data.